sensor_id;sensor_type;location;lat;lon;timestamp;P1;durP1;ratioP1;P2;durP2;ratioP2
8500;SDS011;4288;48.484;10.024;2022-07-21T00:00:13;13.00;;;5.10;;
8500;SDS011;4288;48.484;10.024;2022-07-21T00:02:41;6.37;;;3.47;;
8500;SDS011;4288;48.484;10.024;2022-07-21T00:05:10;5.40;;;4.00;;
8500;SDS011;4288;48.484;10.024;2022-07-21T00:07:37;4.63;;;4.13;;
8500;SDS011;4288;48.484;10.024;2022-07-21T00:10:05;7.00;;;4.50;;
8500;SDS011;4288;48.484;10.024;2022-07-21T00:12:33;6.60;;;4.67;;
8500;SDS011;4288;48.484;10.024;2022-07-21T00:15:00;7.23;;;4.47;;
8500;SDS011;4288;48.484;10.024;2022-07-21T00:17:28;5.93;;;3.87;;
8500;SDS011;4288;48.484;10.024;2022-07-21T00:19:55;8.43;;;4.67;;
8500;SDS011;4288;48.484;10.024;2022-07-21T00:22:24;5.70;;;4.50;;
8500;SDS011;4288;48.484;10.024;2022-07-21T00:24:51;7.03;;;4.40;;
8500;SDS011;4288;48.484;10.024;2022-07-21T00:27:18;5.77;;;4.60;;
8500;SDS011;4288;48.484;10.024;2022-07-21T00:29:45;6.93;;;4.73;;
8500;SDS011;4288;48.484;10.024;2022-07-21T00:32:12;5.57;;;4.83;;
8500;SDS011;4288;48.484;10.024;2022-07-21T00:34:40;5.03;;;4.53;;
8500;SDS011;4288;48.484;10.024;2022-07-21T00:37:08;6.77;;;4.97;;
8500;SDS011;4288;48.484;10.024;2022-07-21T00:39:36;7.60;;;5.17;;
8500;SDS011;4288;48.484;10.024;2022-07-21T00:42:04;11.77;;;4.93;;
8500;SDS011;4288;48.484;10.024;2022-07-21T00:44:32;6.07;;;4.83;;
8500;SDS011;4288;48.484;10.024;2022-07-21T00:46:59;8.03;;;5.57;;
8500;SDS011;4288;48.484;10.024;2022-07-21T00:49:26;6.50;;;4.93;;
8500;SDS011;4288;48.484;10.024;2022-07-21T00:51:53;8.20;;;4.83;;
8500;SDS011;4288;48.484;10.024;2022-07-21T00:54:20;6.73;;;4.57;;
8500;SDS011;4288;48.484;10.024;2022-07-21T00:56:49;5.80;;;4.80;;
8500;SDS011;4288;48.484;10.024;2022-07-21T00:59:16;5.40;;;4.40;;
8500;SDS011;4288;48.484;10.024;2022-07-21T01:01:43;8.87;;;6.03;;
8500;SDS011;4288;48.484;10.024;2022-07-21T01:04:10;6.00;;;5.13;;
8500;SDS011;4288;48.484;10.024;2022-07-21T01:06:38;7.70;;;5.37;;
8500;SDS011;4288;48.484;10.024;2022-07-21T01:09:05;6.73;;;5.30;;
8500;SDS011;4288;48.484;10.024;2022-07-21T01:11:32;5.53;;;4.93;;
8500;SDS011;4288;48.484;10.024;2022-07-21T01:14:02;5.77;;;5.07;;
8500;SDS011;4288;48.484;10.024;2022-07-21T01:16:29;8.70;;;4.93;;
8500;SDS011;4288;48.484;10.024;2022-07-21T01:18:57;8.10;;;5.30;;
8500;SDS011;4288;48.484;10.024;2022-07-21T01:21:30;6.00;;;5.20;;
8500;SDS011;4288;48.484;10.024;2022-07-21T01:24:00;12.33;;;5.47;;
8500;SDS011;4288;48.484;10.024;2022-07-21T01:26:29;6.90;;;5.33;;
8500;SDS011;4288;48.484;10.024;2022-07-21T01:29:05;6.30;;;4.90;;
8500;SDS011;4288;48.484;10.024;2022-07-21T01:31:33;8.10;;;4.80;;
8500;SDS011;4288;48.484;10.024;2022-07-21T01:34:01;6.70;;;5.47;;
8500;SDS011;4288;48.484;10.024;2022-07-21T01:36:30;7.77;;;5.57;;
8500;SDS011;4288;48.484;10.024;2022-07-21T01:38:57;8.93;;;5.63;;
8500;SDS011;4288;48.484;10.024;2022-07-21T01:41:42;8.83;;;5.60;;
8500;SDS011;4288;48.484;10.024;2022-07-21T01:44:10;8.90;;;5.27;;
8500;SDS011;4288;48.484;10.024;2022-07-21T01:46:39;7.40;;;5.60;;
8500;SDS011;4288;48.484;10.024;2022-07-21T01:49:09;9.90;;;5.50;;
8500;SDS011;4288;48.484;10.024;2022-07-21T01:51:40;7.30;;;5.57;;
8500;SDS011;4288;48.484;10.024;2022-07-21T01:54:07;6.40;;;4.50;;
8500;SDS011;4288;48.484;10.024;2022-07-21T01:56:36;6.40;;;5.00;;
8500;SDS011;4288;48.484;10.024;2022-07-21T01:59:05;5.70;;;4.83;;
8500;SDS011;4288;48.484;10.024;2022-07-21T02:01:34;7.40;;;5.50;;
8500;SDS011;4288;48.484;10.024;2022-07-21T02:04:02;8.67;;;6.27;;
8500;SDS011;4288;48.484;10.024;2022-07-21T02:06:31;10.20;;;6.30;;
8500;SDS011;4288;48.484;10.024;2022-07-21T02:09:00;6.17;;;5.10;;
8500;SDS011;4288;48.484;10.024;2022-07-21T02:11:27;6.30;;;5.43;;
8500;SDS011;4288;48.484;10.024;2022-07-21T02:13:54;12.03;;;6.10;;
8500;SDS011;4288;48.484;10.024;2022-07-21T02:16:22;7.73;;;5.73;;
8500;SDS011;4288;48.484;10.024;2022-07-21T02:18:49;6.10;;;5.23;;
8500;SDS011;4288;48.484;10.024;2022-07-21T02:21:16;7.27;;;5.70;;
8500;SDS011;4288;48.484;10.024;2022-07-21T02:23:43;6.83;;;5.77;;
8500;SDS011;4288;48.484;10.024;2022-07-21T02:26:12;7.40;;;6.30;;
8500;SDS011;4288;48.484;10.024;2022-07-21T02:28:39;7.27;;;6.10;;
8500;SDS011;4288;48.484;10.024;2022-07-21T02:31:07;7.47;;;5.63;;
8500;SDS011;4288;48.484;10.024;2022-07-21T02:33:34;6.50;;;5.33;;
8500;SDS011;4288;48.484;10.024;2022-07-21T02:36:02;8.50;;;6.10;;
8500;SDS011;4288;48.484;10.024;2022-07-21T02:38:29;18.83;;;7.60;;
8500;SDS011;4288;48.484;10.024;2022-07-21T02:40:57;12.20;;;5.60;;
8500;SDS011;4288;48.484;10.024;2022-07-21T02:43:25;8.57;;;5.70;;
8500;SDS011;4288;48.484;10.024;2022-07-21T02:45:52;9.27;;;5.40;;
8500;SDS011;4288;48.484;10.024;2022-07-21T02:48:20;8.63;;;6.50;;
8500;SDS011;4288;48.484;10.024;2022-07-21T02:50:47;6.80;;;5.40;;
8500;SDS011;4288;48.484;10.024;2022-07-21T02:53:14;8.30;;;6.73;;
8500;SDS011;4288;48.484;10.024;2022-07-21T02:55:44;10.60;;;6.83;;
8500;SDS011;4288;48.484;10.024;2022-07-21T02:58:13;12.07;;;6.03;;
8500;SDS011;4288;48.484;10.024;2022-07-21T03:00:44;11.33;;;6.70;;
8500;SDS011;4288;48.484;10.024;2022-07-21T03:03:14;12.63;;;6.70;;
8500;SDS011;4288;48.484;10.024;2022-07-21T03:05:42;9.33;;;7.17;;
8500;SDS011;4288;48.484;10.024;2022-07-21T03:08:09;8.50;;;6.27;;
8500;SDS011;4288;48.484;10.024;2022-07-21T03:10:38;16.70;;;6.20;;
8500;SDS011;4288;48.484;10.024;2022-07-21T03:13:06;11.73;;;6.10;;
8500;SDS011;4288;48.484;10.024;2022-07-21T03:15:33;11.57;;;6.50;;
8500;SDS011;4288;48.484;10.024;2022-07-21T03:18:02;12.20;;;6.40;;
8500;SDS011;4288;48.484;10.024;2022-07-21T03:20:31;7.73;;;6.60;;
8500;SDS011;4288;48.484;10.024;2022-07-21T03:23:01;10.47;;;6.40;;
8500;SDS011;4288;48.484;10.024;2022-07-21T03:25:29;8.93;;;6.70;;
8500;SDS011;4288;48.484;10.024;2022-07-21T03:27:57;9.23;;;6.10;;
8500;SDS011;4288;48.484;10.024;2022-07-21T03:30:24;11.63;;;6.87;;
8500;SDS011;4288;48.484;10.024;2022-07-21T03:32:53;9.07;;;6.17;;
8500;SDS011;4288;48.484;10.024;2022-07-21T03:35:22;9.77;;;7.20;;
8500;SDS011;4288;48.484;10.024;2022-07-21T03:37:50;11.70;;;6.00;;
8500;SDS011;4288;48.484;10.024;2022-07-21T03:40:19;9.23;;;6.90;;
8500;SDS011;4288;48.484;10.024;2022-07-21T03:42:49;11.03;;;6.80;;
8500;SDS011;4288;48.484;10.024;2022-07-21T03:45:18;8.23;;;6.43;;
8500;SDS011;4288;48.484;10.024;2022-07-21T03:47:45;8.60;;;6.90;;
8500;SDS011;4288;48.484;10.024;2022-07-21T03:50:13;10.80;;;6.57;;
8500;SDS011;4288;48.484;10.024;2022-07-21T03:52:43;8.63;;;6.90;;
8500;SDS011;4288;48.484;10.024;2022-07-21T03:55:11;8.00;;;6.97;;
8500;SDS011;4288;48.484;10.024;2022-07-21T03:57:40;10.13;;;7.30;;
8500;SDS011;4288;48.484;10.024;2022-07-21T04:00:11;13.53;;;6.67;;
8500;SDS011;4288;48.484;10.024;2022-07-21T04:02:41;9.37;;;6.43;;
8500;SDS011;4288;48.484;10.024;2022-07-21T04:05:09;10.33;;;6.80;;
8500;SDS011;4288;48.484;10.024;2022-07-21T04:07:38;10.73;;;6.43;;
8500;SDS011;4288;48.484;10.024;2022-07-21T04:10:08;9.20;;;7.30;;
8500;SDS011;4288;48.484;10.024;2022-07-21T04:12:38;15.40;;;7.03;;
8500;SDS011;4288;48.484;10.024;2022-07-21T04:15:06;9.90;;;5.83;;
8500;SDS011;4288;48.484;10.024;2022-07-21T04:17:35;6.73;;;6.13;;
8500;SDS011;4288;48.484;10.024;2022-07-21T04:20:04;9.40;;;6.13;;
8500;SDS011;4288;48.484;10.024;2022-07-21T04:22:33;8.80;;;6.57;;
8500;SDS011;4288;48.484;10.024;2022-07-21T04:25:01;7.17;;;5.80;;
8500;SDS011;4288;48.484;10.024;2022-07-21T04:27:30;6.80;;;6.13;;
8500;SDS011;4288;48.484;10.024;2022-07-21T04:29:57;8.23;;;6.70;;
8500;SDS011;4288;48.484;10.024;2022-07-21T04:32:25;9.40;;;6.80;;
8500;SDS011;4288;48.484;10.024;2022-07-21T04:34:52;10.70;;;6.20;;
8500;SDS011;4288;48.484;10.024;2022-07-21T04:37:19;9.40;;;6.77;;
8500;SDS011;4288;48.484;10.024;2022-07-21T04:39:47;8.60;;;5.60;;
8500;SDS011;4288;48.484;10.024;2022-07-21T04:42:14;9.03;;;7.00;;
8500;SDS011;4288;48.484;10.024;2022-07-21T04:44:43;9.90;;;6.27;;
8500;SDS011;4288;48.484;10.024;2022-07-21T04:47:10;6.30;;;5.70;;
8500;SDS011;4288;48.484;10.024;2022-07-21T04:49:37;13.23;;;6.40;;
8500;SDS011;4288;48.484;10.024;2022-07-21T04:52:04;6.80;;;6.00;;
8500;SDS011;4288;48.484;10.024;2022-07-21T04:54:32;7.80;;;6.80;;
8500;SDS011;4288;48.484;10.024;2022-07-21T04:56:59;12.03;;;6.23;;
8500;SDS011;4288;48.484;10.024;2022-07-21T04:59:27;6.80;;;5.43;;
8500;SDS011;4288;48.484;10.024;2022-07-21T05:01:56;12.97;;;6.20;;
8500;SDS011;4288;48.484;10.024;2022-07-21T05:04:24;9.97;;;5.87;;
8500;SDS011;4288;48.484;10.024;2022-07-21T05:06:52;8.00;;;4.90;;
8500;SDS011;4288;48.484;10.024;2022-07-21T05:09:19;7.30;;;5.40;;
8500;SDS011;4288;48.484;10.024;2022-07-21T05:11:47;13.33;;;5.87;;
8500;SDS011;4288;48.484;10.024;2022-07-21T05:14:14;14.50;;;6.10;;
8500;SDS011;4288;48.484;10.024;2022-07-21T05:16:41;10.63;;;6.03;;
8500;SDS011;4288;48.484;10.024;2022-07-21T05:19:10;8.87;;;5.67;;
8500;SDS011;4288;48.484;10.024;2022-07-21T05:21:37;11.93;;;5.60;;
8500;SDS011;4288;48.484;10.024;2022-07-21T05:24:05;7.90;;;6.03;;
8500;SDS011;4288;48.484;10.024;2022-07-21T05:26:32;6.50;;;5.60;;
8500;SDS011;4288;48.484;10.024;2022-07-21T05:28:59;10.27;;;5.90;;
8500;SDS011;4288;48.484;10.024;2022-07-21T05:31:26;8.33;;;4.90;;
8500;SDS011;4288;48.484;10.024;2022-07-21T05:33:53;6.07;;;4.40;;
8500;SDS011;4288;48.484;10.024;2022-07-21T05:36:22;11.13;;;5.33;;
8500;SDS011;4288;48.484;10.024;2022-07-21T05:38:49;5.43;;;4.93;;
8500;SDS011;4288;48.484;10.024;2022-07-21T05:41:16;12.83;;;5.60;;
8500;SDS011;4288;48.484;10.024;2022-07-21T05:43:43;10.83;;;6.30;;
8500;SDS011;4288;48.484;10.024;2022-07-21T05:46:10;12.00;;;7.13;;
8500;SDS011;4288;48.484;10.024;2022-07-21T05:48:37;6.70;;;5.30;;
8500;SDS011;4288;48.484;10.024;2022-07-21T05:51:05;9.97;;;7.30;;
8500;SDS011;4288;48.484;10.024;2022-07-21T05:53:33;8.87;;;6.60;;
8500;SDS011;4288;48.484;10.024;2022-07-21T05:56:00;12.50;;;6.80;;
8500;SDS011;4288;48.484;10.024;2022-07-21T05:58:27;9.40;;;6.73;;
8500;SDS011;4288;48.484;10.024;2022-07-21T06:00:55;7.60;;;6.00;;
8500;SDS011;4288;48.484;10.024;2022-07-21T06:03:39;10.10;;;6.43;;
8500;SDS011;4288;48.484;10.024;2022-07-21T06:06:08;11.50;;;6.43;;
8500;SDS011;4288;48.484;10.024;2022-07-21T06:08:38;10.60;;;6.80;;
8500;SDS011;4288;48.484;10.024;2022-07-21T06:11:07;12.10;;;7.07;;
8500;SDS011;4288;48.484;10.024;2022-07-21T06:13:35;12.43;;;7.00;;
8500;SDS011;4288;48.484;10.024;2022-07-21T06:16:02;8.00;;;6.30;;
8500;SDS011;4288;48.484;10.024;2022-07-21T06:18:30;9.20;;;6.83;;
8500;SDS011;4288;48.484;10.024;2022-07-21T06:20:57;8.50;;;6.23;;
8500;SDS011;4288;48.484;10.024;2022-07-21T06:23:24;8.97;;;6.17;;
8500;SDS011;4288;48.484;10.024;2022-07-21T06:25:53;12.90;;;6.70;;
8500;SDS011;4288;48.484;10.024;2022-07-21T06:28:21;12.97;;;6.20;;
8500;SDS011;4288;48.484;10.024;2022-07-21T06:30:49;8.53;;;5.70;;
8500;SDS011;4288;48.484;10.024;2022-07-21T06:33:16;11.13;;;5.87;;
8500;SDS011;4288;48.484;10.024;2022-07-21T06:35:44;7.27;;;5.43;;
8500;SDS011;4288;48.484;10.024;2022-07-21T06:38:12;7.10;;;6.13;;
8500;SDS011;4288;48.484;10.024;2022-07-21T06:40:39;9.50;;;5.60;;
8500;SDS011;4288;48.484;10.024;2022-07-21T06:43:08;6.63;;;5.43;;
8500;SDS011;4288;48.484;10.024;2022-07-21T06:45:35;7.60;;;5.40;;
8500;SDS011;4288;48.484;10.024;2022-07-21T06:48:03;9.40;;;5.70;;
8500;SDS011;4288;48.484;10.024;2022-07-21T06:50:33;8.67;;;5.73;;
8500;SDS011;4288;48.484;10.024;2022-07-21T06:53:02;6.87;;;4.53;;
8500;SDS011;4288;48.484;10.024;2022-07-21T06:55:29;7.43;;;6.20;;
8500;SDS011;4288;48.484;10.024;2022-07-21T06:57:57;14.70;;;5.63;;
8500;SDS011;4288;48.484;10.024;2022-07-21T07:00:35;5.83;;;5.03;;
8500;SDS011;4288;48.484;10.024;2022-07-21T07:03:02;7.07;;;5.80;;
8500;SDS011;4288;48.484;10.024;2022-07-21T07:05:30;6.60;;;5.27;;
8500;SDS011;4288;48.484;10.024;2022-07-21T07:07:57;5.50;;;5.00;;
8500;SDS011;4288;48.484;10.024;2022-07-21T07:10:25;9.97;;;6.00;;
8500;SDS011;4288;48.484;10.024;2022-07-21T07:12:53;10.10;;;5.27;;
8500;SDS011;4288;48.484;10.024;2022-07-21T07:15:21;5.80;;;5.20;;
8500;SDS011;4288;48.484;10.024;2022-07-21T07:17:50;15.30;;;6.10;;
8500;SDS011;4288;48.484;10.024;2022-07-21T07:20:18;6.63;;;5.20;;
8500;SDS011;4288;48.484;10.024;2022-07-21T07:22:45;9.03;;;5.80;;
8500;SDS011;4288;48.484;10.024;2022-07-21T07:25:13;10.53;;;6.23;;
8500;SDS011;4288;48.484;10.024;2022-07-21T07:27:42;9.47;;;5.00;;
8500;SDS011;4288;48.484;10.024;2022-07-21T07:30:10;10.73;;;5.50;;
8500;SDS011;4288;48.484;10.024;2022-07-21T07:32:38;18.63;;;6.33;;
8500;SDS011;4288;48.484;10.024;2022-07-21T07:35:08;12.83;;;6.23;;
8500;SDS011;4288;48.484;10.024;2022-07-21T07:37:37;36.77;;;7.00;;
8500;SDS011;4288;48.484;10.024;2022-07-21T07:40:06;26.97;;;8.73;;
8500;SDS011;4288;48.484;10.024;2022-07-21T07:42:37;27.60;;;7.87;;
8500;SDS011;4288;48.484;10.024;2022-07-21T07:45:04;42.00;;;7.43;;
8500;SDS011;4288;48.484;10.024;2022-07-21T07:47:34;34.80;;;9.13;;
8500;SDS011;4288;48.484;10.024;2022-07-21T07:50:01;30.93;;;8.63;;
8500;SDS011;4288;48.484;10.024;2022-07-21T07:52:31;39.63;;;7.40;;
8500;SDS011;4288;48.484;10.024;2022-07-21T07:54:58;27.00;;;8.20;;
8500;SDS011;4288;48.484;10.024;2022-07-21T07:57:28;23.67;;;8.10;;
8500;SDS011;4288;48.484;10.024;2022-07-21T07:59:56;19.90;;;8.80;;
8500;SDS011;4288;48.484;10.024;2022-07-21T08:02:23;19.07;;;7.80;;
8500;SDS011;4288;48.484;10.024;2022-07-21T08:04:50;19.67;;;8.37;;
8500;SDS011;4288;48.484;10.024;2022-07-21T08:07:17;11.80;;;6.97;;
8500;SDS011;4288;48.484;10.024;2022-07-21T08:09:46;11.20;;;7.20;;
8500;SDS011;4288;48.484;10.024;2022-07-21T08:12:13;21.70;;;8.10;;
8500;SDS011;4288;48.484;10.024;2022-07-21T08:14:40;13.73;;;7.20;;
8500;SDS011;4288;48.484;10.024;2022-07-21T08:17:07;27.73;;;8.13;;
8500;SDS011;4288;48.484;10.024;2022-07-21T08:19:34;22.63;;;7.67;;
8500;SDS011;4288;48.484;10.024;2022-07-21T08:22:01;14.73;;;7.23;;
8500;SDS011;4288;48.484;10.024;2022-07-21T08:24:29;22.10;;;8.07;;
8500;SDS011;4288;48.484;10.024;2022-07-21T08:26:57;20.50;;;7.07;;
8500;SDS011;4288;48.484;10.024;2022-07-21T08:29:24;32.93;;;7.53;;
8500;SDS011;4288;48.484;10.024;2022-07-21T08:31:51;27.93;;;7.17;;
8500;SDS011;4288;48.484;10.024;2022-07-21T08:34:18;51.20;;;8.37;;
8500;SDS011;4288;48.484;10.024;2022-07-21T08:36:46;22.60;;;8.60;;
8500;SDS011;4288;48.484;10.024;2022-07-21T08:39:13;31.07;;;7.20;;
8500;SDS011;4288;48.484;10.024;2022-07-21T08:41:40;26.17;;;7.87;;
8500;SDS011;4288;48.484;10.024;2022-07-21T08:44:09;25.67;;;6.23;;
8500;SDS011;4288;48.484;10.024;2022-07-21T08:46:37;14.27;;;7.23;;
8500;SDS011;4288;48.484;10.024;2022-07-21T08:49:06;15.80;;;7.60;;
8500;SDS011;4288;48.484;10.024;2022-07-21T08:51:36;28.43;;;8.13;;
8500;SDS011;4288;48.484;10.024;2022-07-21T08:54:04;13.97;;;6.37;;
8500;SDS011;4288;48.484;10.024;2022-07-21T08:56:31;17.37;;;8.00;;
8500;SDS011;4288;48.484;10.024;2022-07-21T08:58:58;17.87;;;7.20;;
8500;SDS011;4288;48.484;10.024;2022-07-21T09:01:27;15.33;;;6.73;;
8500;SDS011;4288;48.484;10.024;2022-07-21T09:03:54;16.97;;;6.90;;
8500;SDS011;4288;48.484;10.024;2022-07-21T09:06:21;16.47;;;6.83;;
8500;SDS011;4288;48.484;10.024;2022-07-21T09:08:49;16.13;;;6.80;;
8500;SDS011;4288;48.484;10.024;2022-07-21T09:11:20;18.23;;;6.80;;
8500;SDS011;4288;48.484;10.024;2022-07-21T09:13:50;12.13;;;6.10;;
8500;SDS011;4288;48.484;10.024;2022-07-21T09:16:34;15.40;;;6.37;;
8500;SDS011;4288;48.484;10.024;2022-07-21T09:19:03;13.03;;;6.73;;
8500;SDS011;4288;48.484;10.024;2022-07-21T09:21:31;14.30;;;5.60;;
8500;SDS011;4288;48.484;10.024;2022-07-21T09:26:57;7.33;;;5.70;;
8500;SDS011;4288;48.484;10.024;2022-07-21T09:29:35;8.60;;;5.67;;
8500;SDS011;4288;48.484;10.024;2022-07-21T09:32:23;7.63;;;4.53;;
8500;SDS011;4288;48.484;10.024;2022-07-21T09:34:53;8.50;;;5.43;;
8500;SDS011;4288;48.484;10.024;2022-07-21T09:37:24;10.90;;;6.83;;
8500;SDS011;4288;48.484;10.024;2022-07-21T09:39:53;8.00;;;5.60;;
8500;SDS011;4288;48.484;10.024;2022-07-21T09:42:23;13.67;;;5.43;;
8500;SDS011;4288;48.484;10.024;2022-07-21T09:44:53;14.67;;;5.30;;
8500;SDS011;4288;48.484;10.024;2022-07-21T09:47:26;7.90;;;5.17;;
8500;SDS011;4288;48.484;10.024;2022-07-21T09:49:55;8.20;;;5.40;;
8500;SDS011;4288;48.484;10.024;2022-07-21T09:52:26;9.67;;;6.00;;
8500;SDS011;4288;48.484;10.024;2022-07-21T09:54:55;18.77;;;5.30;;
8500;SDS011;4288;48.484;10.024;2022-07-21T09:57:24;9.60;;;5.40;;
8500;SDS011;4288;48.484;10.024;2022-07-21T09:59:53;17.23;;;5.63;;
8500;SDS011;4288;48.484;10.024;2022-07-21T10:02:21;13.80;;;4.83;;
8500;SDS011;4288;48.484;10.024;2022-07-21T10:04:54;7.93;;;5.33;;
8500;SDS011;4288;48.484;10.024;2022-07-21T10:07:25;9.53;;;5.90;;
8500;SDS011;4288;48.484;10.024;2022-07-21T10:09:53;12.30;;;6.33;;
8500;SDS011;4288;48.484;10.024;2022-07-21T10:12:21;8.03;;;5.87;;
8500;SDS011;4288;48.484;10.024;2022-07-21T10:14:50;21.13;;;6.30;;
8500;SDS011;4288;48.484;10.024;2022-07-21T10:17:18;24.40;;;6.50;;
8500;SDS011;4288;48.484;10.024;2022-07-21T10:19:53;10.50;;;5.17;;
8500;SDS011;4288;48.484;10.024;2022-07-21T10:22:36;8.40;;;5.03;;
8500;SDS011;4288;48.484;10.024;2022-07-21T10:25:21;13.33;;;5.90;;
8500;SDS011;4288;48.484;10.024;2022-07-21T10:30:44;7.07;;;4.90;;
8500;SDS011;4288;48.484;10.024;2022-07-21T10:33:14;11.73;;;4.40;;
8500;SDS011;4288;48.484;10.024;2022-07-21T10:35:45;9.13;;;5.57;;
8500;SDS011;4288;48.484;10.024;2022-07-21T10:38:26;7.07;;;5.03;;
8500;SDS011;4288;48.484;10.024;2022-07-21T10:40:56;11.53;;;5.60;;
8500;SDS011;4288;48.484;10.024;2022-07-21T10:43:35;5.50;;;4.90;;
8500;SDS011;4288;48.484;10.024;2022-07-21T10:49:03;11.67;;;5.57;;
8500;SDS011;4288;48.484;10.024;2022-07-21T10:51:33;6.43;;;4.40;;
8500;SDS011;4288;48.484;10.024;2022-07-21T10:57:23;14.77;;;5.20;;
8500;SDS011;4288;48.484;10.024;2022-07-21T11:02:52;6.87;;;5.80;;
8500;SDS011;4288;48.484;10.024;2022-07-21T11:05:22;8.40;;;5.17;;
8500;SDS011;4288;48.484;10.024;2022-07-21T11:10:45;5.57;;;4.90;;
8500;SDS011;4288;48.484;10.024;2022-07-21T11:13:14;8.93;;;5.50;;
8500;SDS011;4288;48.484;10.024;2022-07-21T11:15:53;8.60;;;4.70;;
8500;SDS011;4288;48.484;10.024;2022-07-21T11:18:24;11.80;;;5.50;;
8500;SDS011;4288;48.484;10.024;2022-07-21T11:21:02;5.90;;;4.63;;
8500;SDS011;4288;48.484;10.024;2022-07-21T11:23:38;8.27;;;4.87;;
8500;SDS011;4288;48.484;10.024;2022-07-21T11:26:09;5.20;;;3.90;;
8500;SDS011;4288;48.484;10.024;2022-07-21T11:28:38;5.20;;;4.70;;
8500;SDS011;4288;48.484;10.024;2022-07-21T11:31:11;13.60;;;5.20;;
8500;SDS011;4288;48.484;10.024;2022-07-21T11:33:42;10.73;;;5.10;;
8500;SDS011;4288;48.484;10.024;2022-07-21T11:36:25;7.63;;;4.73;;
8500;SDS011;4288;48.484;10.024;2022-07-21T11:39:03;8.50;;;4.90;;
8500;SDS011;4288;48.484;10.024;2022-07-21T11:41:33;9.40;;;4.90;;
8500;SDS011;4288;48.484;10.024;2022-07-21T11:44:02;5.50;;;4.50;;
8500;SDS011;4288;48.484;10.024;2022-07-21T11:46:44;10.37;;;4.20;;
8500;SDS011;4288;48.484;10.024;2022-07-21T11:49:13;9.17;;;4.63;;
8500;SDS011;4288;48.484;10.024;2022-07-21T11:51:45;6.20;;;4.60;;
8500;SDS011;4288;48.484;10.024;2022-07-21T11:54:23;6.73;;;4.80;;
8500;SDS011;4288;48.484;10.024;2022-07-21T11:56:54;7.70;;;4.60;;
8500;SDS011;4288;48.484;10.024;2022-07-21T11:59:24;7.27;;;4.43;;
8500;SDS011;4288;48.484;10.024;2022-07-21T12:01:53;7.07;;;4.40;;
8500;SDS011;4288;48.484;10.024;2022-07-21T12:04:37;6.60;;;4.50;;
8500;SDS011;4288;48.484;10.024;2022-07-21T12:07:11;6.83;;;3.57;;
8500;SDS011;4288;48.484;10.024;2022-07-21T12:09:47;5.90;;;4.07;;
8500;SDS011;4288;48.484;10.024;2022-07-21T12:12:30;11.27;;;5.20;;
8500;SDS011;4288;48.484;10.024;2022-07-21T12:15:10;10.33;;;4.13;;
8500;SDS011;4288;48.484;10.024;2022-07-21T12:17:43;5.53;;;4.23;;
8500;SDS011;4288;48.484;10.024;2022-07-21T12:20:12;6.10;;;3.90;;
8500;SDS011;4288;48.484;10.024;2022-07-21T12:22:42;4.67;;;4.10;;
8500;SDS011;4288;48.484;10.024;2022-07-21T12:25:13;6.33;;;4.63;;
8500;SDS011;4288;48.484;10.024;2022-07-21T12:27:43;8.93;;;4.20;;
8500;SDS011;4288;48.484;10.024;2022-07-21T12:33:03;5.00;;;3.83;;
8500;SDS011;4288;48.484;10.024;2022-07-21T12:35:36;4.50;;;4.10;;
8500;SDS011;4288;48.484;10.024;2022-07-21T12:38:06;7.47;;;4.13;;
8500;SDS011;4288;48.484;10.024;2022-07-21T12:40:38;4.13;;;3.60;;
8500;SDS011;4288;48.484;10.024;2022-07-21T12:43:12;8.03;;;4.50;;
8500;SDS011;4288;48.484;10.024;2022-07-21T12:45:51;8.00;;;4.27;;
8500;SDS011;4288;48.484;10.024;2022-07-21T12:48:22;4.70;;;4.00;;
8500;SDS011;4288;48.484;10.024;2022-07-21T12:51:05;5.87;;;4.20;;
8500;SDS011;4288;48.484;10.024;2022-07-21T12:53:40;4.10;;;3.67;;
8500;SDS011;4288;48.484;10.024;2022-07-21T12:56:12;5.40;;;4.00;;
8500;SDS011;4288;48.484;10.024;2022-07-21T12:58:41;7.07;;;4.53;;
8500;SDS011;4288;48.484;10.024;2022-07-21T13:01:08;4.80;;;3.83;;
8500;SDS011;4288;48.484;10.024;2022-07-21T13:03:36;6.60;;;4.00;;
8500;SDS011;4288;48.484;10.024;2022-07-21T13:06:04;7.87;;;4.37;;
8500;SDS011;4288;48.484;10.024;2022-07-21T13:08:32;5.30;;;3.63;;
8500;SDS011;4288;48.484;10.024;2022-07-21T13:11:00;4.03;;;3.20;;
8500;SDS011;4288;48.484;10.024;2022-07-21T13:13:28;5.77;;;3.80;;
8500;SDS011;4288;48.484;10.024;2022-07-21T13:15:55;6.40;;;4.40;;
8500;SDS011;4288;48.484;10.024;2022-07-21T13:18:23;4.30;;;3.77;;
8500;SDS011;4288;48.484;10.024;2022-07-21T13:20:50;4.23;;;3.57;;
8500;SDS011;4288;48.484;10.024;2022-07-21T13:23:19;10.10;;;4.17;;
8500;SDS011;4288;48.484;10.024;2022-07-21T13:25:47;5.30;;;4.27;;
8500;SDS011;4288;48.484;10.024;2022-07-21T13:28:14;4.33;;;3.80;;
8500;SDS011;4288;48.484;10.024;2022-07-21T13:30:43;4.20;;;3.60;;
8500;SDS011;4288;48.484;10.024;2022-07-21T13:33:11;5.33;;;4.13;;
8500;SDS011;4288;48.484;10.024;2022-07-21T13:35:39;9.40;;;4.63;;
8500;SDS011;4288;48.484;10.024;2022-07-21T13:38:06;4.40;;;3.60;;
8500;SDS011;4288;48.484;10.024;2022-07-21T13:40:33;4.27;;;3.60;;
8500;SDS011;4288;48.484;10.024;2022-07-21T13:43:01;5.23;;;4.20;;
8500;SDS011;4288;48.484;10.024;2022-07-21T13:45:29;5.80;;;4.33;;
8500;SDS011;4288;48.484;10.024;2022-07-21T13:47:58;5.80;;;4.00;;
8500;SDS011;4288;48.484;10.024;2022-07-21T13:50:25;5.00;;;3.80;;
8500;SDS011;4288;48.484;10.024;2022-07-21T13:52:52;4.90;;;3.67;;
8500;SDS011;4288;48.484;10.024;2022-07-21T13:55:20;3.53;;;3.23;;
8500;SDS011;4288;48.484;10.024;2022-07-21T13:57:47;4.67;;;3.90;;
8500;SDS011;4288;48.484;10.024;2022-07-21T14:00:15;5.30;;;3.80;;
8500;SDS011;4288;48.484;10.024;2022-07-21T14:02:43;5.17;;;4.07;;
8500;SDS011;4288;48.484;10.024;2022-07-21T14:05:11;4.83;;;4.43;;
8500;SDS011;4288;48.484;10.024;2022-07-21T14:07:39;6.07;;;4.00;;
8500;SDS011;4288;48.484;10.024;2022-07-21T14:10:06;4.40;;;3.40;;
8500;SDS011;4288;48.484;10.024;2022-07-21T14:12:35;3.77;;;3.40;;
8500;SDS011;4288;48.484;10.024;2022-07-21T14:15:02;6.50;;;3.80;;
8500;SDS011;4288;48.484;10.024;2022-07-21T14:17:30;5.70;;;3.93;;
8500;SDS011;4288;48.484;10.024;2022-07-21T14:19:57;4.00;;;3.50;;
8500;SDS011;4288;48.484;10.024;2022-07-21T14:22:26;4.93;;;3.47;;
8500;SDS011;4288;48.484;10.024;2022-07-21T14:24:53;5.30;;;3.80;;
8500;SDS011;4288;48.484;10.024;2022-07-21T14:27:37;4.97;;;4.20;;
8500;SDS011;4288;48.484;10.024;2022-07-21T14:30:05;4.20;;;3.80;;
8500;SDS011;4288;48.484;10.024;2022-07-21T14:32:33;6.40;;;4.10;;
8500;SDS011;4288;48.484;10.024;2022-07-21T14:35:00;4.17;;;3.70;;
8500;SDS011;4288;48.484;10.024;2022-07-21T14:37:29;6.13;;;4.00;;
8500;SDS011;4288;48.484;10.024;2022-07-21T14:39:56;3.70;;;3.40;;
8500;SDS011;4288;48.484;10.024;2022-07-21T14:42:23;4.60;;;4.20;;
8500;SDS011;4288;48.484;10.024;2022-07-21T14:44:50;3.43;;;3.13;;
8500;SDS011;4288;48.484;10.024;2022-07-21T14:47:18;4.13;;;3.73;;
8500;SDS011;4288;48.484;10.024;2022-07-21T14:49:45;6.07;;;3.80;;
8500;SDS011;4288;48.484;10.024;2022-07-21T14:52:12;3.87;;;3.03;;
8500;SDS011;4288;48.484;10.024;2022-07-21T14:54:40;4.67;;;3.83;;
8500;SDS011;4288;48.484;10.024;2022-07-21T14:57:08;4.80;;;3.80;;
8500;SDS011;4288;48.484;10.024;2022-07-21T14:59:35;4.73;;;3.23;;
8500;SDS011;4288;48.484;10.024;2022-07-21T15:02:02;3.50;;;3.17;;
8500;SDS011;4288;48.484;10.024;2022-07-21T15:04:29;10.13;;;3.87;;
8500;SDS011;4288;48.484;10.024;2022-07-21T15:06:57;4.00;;;3.60;;
8500;SDS011;4288;48.484;10.024;2022-07-21T15:09:24;3.93;;;3.10;;
8500;SDS011;4288;48.484;10.024;2022-07-21T15:11:52;5.03;;;3.40;;
8500;SDS011;4288;48.484;10.024;2022-07-21T15:14:19;4.13;;;3.77;;
8500;SDS011;4288;48.484;10.024;2022-07-21T15:16:47;3.87;;;3.57;;
8500;SDS011;4288;48.484;10.024;2022-07-21T15:19:14;4.10;;;3.73;;
8500;SDS011;4288;48.484;10.024;2022-07-21T15:21:41;4.37;;;3.57;;
8500;SDS011;4288;48.484;10.024;2022-07-21T15:24:09;4.77;;;3.83;;
8500;SDS011;4288;48.484;10.024;2022-07-21T15:26:36;3.80;;;3.27;;
8500;SDS011;4288;48.484;10.024;2022-07-21T15:29:05;3.90;;;3.37;;